Terminal Aerodrome Forecast
Issued by NWS

Home | Current Version | Previous Version | Text Only | Print | Product List | Glossary On
Versions: 1 2 3 4 5 6 7 8 9 10 11 12
000
FTUS43 KOAX 011100
TAFBFF
TAF
KBFF 011127Z 0112/0212 VRB03KT P6SM SCT300
     FM011900 30008KT P6SM SCT300
     FM012300 35008KT P6SM SCT300
     FM020200 VRB04KT P6SM SKC=

USA.gov is the U.S. government's official web portal to all federal, state and local government web resources and services.